sensor_id;sensor_type;location;lat;lon;timestamp;P1;durP1;ratioP1;P2;durP2;ratioP2
21091;SDS011;10704;42.678;23.288;2023-02-04T00:02:08;15.38;;;7.00;;
21091;SDS011;10704;42.678;23.288;2023-02-04T00:04:34;13.93;;;6.53;;
21091;SDS011;10704;42.678;23.288;2023-02-04T00:07:00;14.20;;;6.60;;
21091;SDS011;10704;42.678;23.288;2023-02-04T00:09:26;13.57;;;6.53;;
21091;SDS011;10704;42.678;23.288;2023-02-04T00:11:52;15.80;;;7.43;;
21091;SDS011;10704;42.678;23.288;2023-02-04T00:14:18;12.35;;;7.25;;
21091;SDS011;10704;42.678;23.288;2023-02-04T00:16:44;15.68;;;7.65;;
21091;SDS011;10704;42.678;23.288;2023-02-04T00:19:10;24.83;;;12.77;;
21091;SDS011;10704;42.678;23.288;2023-02-04T00:21:36;12.07;;;5.90;;
21091;SDS011;10704;42.678;23.288;2023-02-04T00:24:02;13.25;;;6.35;;
21091;SDS011;10704;42.678;23.288;2023-02-04T00:26:28;11.80;;;6.00;;
21091;SDS011;10704;42.678;23.288;2023-02-04T00:28:54;12.30;;;5.97;;
21091;SDS011;10704;42.678;23.288;2023-02-04T00:31:20;12.55;;;6.57;;
21091;SDS011;10704;42.678;23.288;2023-02-04T00:33:46;15.05;;;6.38;;
21091;SDS011;10704;42.678;23.288;2023-02-04T00:36:12;13.45;;;6.63;;
21091;SDS011;10704;42.678;23.288;2023-02-04T00:38:37;15.55;;;5.95;;
21091;SDS011;10704;42.678;23.288;2023-02-04T00:41:04;10.00;;;5.72;;
21091;SDS011;10704;42.678;23.288;2023-02-04T00:43:31;11.25;;;6.57;;
21091;SDS011;10704;42.678;23.288;2023-02-04T00:49:45;10.43;;;4.93;;
21091;SDS011;10704;42.678;23.288;2023-02-04T00:52:11;10.98;;;4.70;;
21091;SDS011;10704;42.678;23.288;2023-02-04T00:54:37;8.32;;;4.50;;
21091;SDS011;10704;42.678;23.288;2023-02-04T00:57:03;14.45;;;4.68;;
21091;SDS011;10704;42.678;23.288;2023-02-04T00:59:29;6.68;;;2.55;;
21091;SDS011;10704;42.678;23.288;2023-02-04T01:01:54;7.05;;;3.25;;
21091;SDS011;10704;42.678;23.288;2023-02-04T01:04:20;10.73;;;5.50;;
21091;SDS011;10704;42.678;23.288;2023-02-04T01:06:49;12.27;;;5.82;;
21091;SDS011;10704;42.678;23.288;2023-02-04T01:09:15;16.63;;;7.10;;
21091;SDS011;10704;42.678;23.288;2023-02-04T01:11:41;14.10;;;6.28;;
21091;SDS011;10704;42.678;23.288;2023-02-04T01:14:07;9.40;;;5.47;;
21091;SDS011;10704;42.678;23.288;2023-02-04T01:16:33;12.43;;;6.45;;
21091;SDS011;10704;42.678;23.288;2023-02-04T01:18:59;11.02;;;5.68;;
21091;SDS011;10704;42.678;23.288;2023-02-04T01:21:25;12.85;;;6.15;;
21091;SDS011;10704;42.678;23.288;2023-02-04T01:23:51;11.02;;;5.55;;
21091;SDS011;10704;42.678;23.288;2023-02-04T01:26:17;10.15;;;5.22;;
21091;SDS011;10704;42.678;23.288;2023-02-04T01:28:44;10.50;;;5.32;;
21091;SDS011;10704;42.678;23.288;2023-02-04T01:31:10;10.65;;;5.63;;
21091;SDS011;10704;42.678;23.288;2023-02-04T01:33:36;11.88;;;6.13;;
21091;SDS011;10704;42.678;23.288;2023-02-04T01:36:02;12.18;;;5.85;;
21091;SDS011;10704;42.678;23.288;2023-02-04T01:38:28;14.65;;;6.97;;
21091;SDS011;10704;42.678;23.288;2023-02-04T01:40:54;13.70;;;7.13;;
21091;SDS011;10704;42.678;23.288;2023-02-04T01:43:21;12.55;;;6.63;;
21091;SDS011;10704;42.678;23.288;2023-02-04T01:45:48;13.35;;;7.07;;
21091;SDS011;10704;42.678;23.288;2023-02-04T01:48:15;15.68;;;8.40;;
21091;SDS011;10704;42.678;23.288;2023-02-04T01:50:56;14.77;;;7.95;;
21091;SDS011;10704;42.678;23.288;2023-02-04T01:53:48;16.23;;;7.82;;
21091;SDS011;10704;42.678;23.288;2023-02-04T01:56:15;15.73;;;8.15;;
21091;SDS011;10704;42.678;23.288;2023-02-04T01:58:44;18.50;;;8.60;;
21091;SDS011;10704;42.678;23.288;2023-02-04T02:01:12;16.45;;;8.45;;
21091;SDS011;10704;42.678;23.288;2023-02-04T02:03:39;17.90;;;8.77;;
21091;SDS011;10704;42.678;23.288;2023-02-04T02:06:06;15.32;;;8.35;;
21091;SDS011;10704;42.678;23.288;2023-02-04T02:08:35;13.43;;;7.70;;
21091;SDS011;10704;42.678;23.288;2023-02-04T02:11:01;16.73;;;8.20;;
21091;SDS011;10704;42.678;23.288;2023-02-04T02:13:28;15.43;;;8.50;;
21091;SDS011;10704;42.678;23.288;2023-02-04T02:15:53;16.55;;;8.73;;
21091;SDS011;10704;42.678;23.288;2023-02-04T02:18:19;19.80;;;8.90;;
21091;SDS011;10704;42.678;23.288;2023-02-04T02:20:46;19.20;;;8.85;;
21091;SDS011;10704;42.678;23.288;2023-02-04T02:25:47;16.65;;;8.50;;
21091;SDS011;10704;42.678;23.288;2023-02-04T02:28:15;14.88;;;8.82;;
21091;SDS011;10704;42.678;23.288;2023-02-04T02:30:43;15.35;;;8.10;;
21091;SDS011;10704;42.678;23.288;2023-02-04T02:33:10;18.08;;;8.48;;
21091;SDS011;10704;42.678;23.288;2023-02-04T02:35:39;17.77;;;8.60;;
21091;SDS011;10704;42.678;23.288;2023-02-04T02:38:10;13.23;;;7.50;;
21091;SDS011;10704;42.678;23.288;2023-02-04T02:40:36;16.13;;;8.43;;
21091;SDS011;10704;42.678;23.288;2023-02-04T02:43:02;16.15;;;7.63;;
21091;SDS011;10704;42.678;23.288;2023-02-04T02:45:30;14.63;;;7.43;;
21091;SDS011;10704;42.678;23.288;2023-02-04T02:47:57;14.00;;;8.13;;
21091;SDS011;10704;42.678;23.288;2023-02-04T02:50:26;16.70;;;7.90;;
21091;SDS011;10704;42.678;23.288;2023-02-04T02:52:53;18.30;;;8.95;;
21091;SDS011;10704;42.678;23.288;2023-02-04T02:55:21;15.85;;;8.27;;
21091;SDS011;10704;42.678;23.288;2023-02-04T02:57:50;12.85;;;7.90;;
21091;SDS011;10704;42.678;23.288;2023-02-04T03:00:20;15.75;;;7.68;;
21091;SDS011;10704;42.678;23.288;2023-02-04T03:03:04;14.68;;;7.32;;
21091;SDS011;10704;42.678;23.288;2023-02-04T03:05:40;16.25;;;8.52;;
21091;SDS011;10704;42.678;23.288;2023-02-04T03:08:09;15.73;;;7.90;;
21091;SDS011;10704;42.678;23.288;2023-02-04T03:10:37;15.52;;;8.65;;
21091;SDS011;10704;42.678;23.288;2023-02-04T03:13:04;14.15;;;8.15;;
21091;SDS011;10704;42.678;23.288;2023-02-04T03:15:30;15.00;;;7.88;;
21091;SDS011;10704;42.678;23.288;2023-02-04T03:17:56;17.70;;;8.07;;
21091;SDS011;10704;42.678;23.288;2023-02-04T03:20:23;13.10;;;7.38;;
21091;SDS011;10704;42.678;23.288;2023-02-04T03:22:51;14.20;;;7.68;;
21091;SDS011;10704;42.678;23.288;2023-02-04T03:25:18;16.00;;;8.25;;
21091;SDS011;10704;42.678;23.288;2023-02-04T03:27:45;15.32;;;7.57;;
21091;SDS011;10704;42.678;23.288;2023-02-04T03:30:11;15.75;;;7.32;;
21091;SDS011;10704;42.678;23.288;2023-02-04T03:32:37;16.85;;;7.78;;
21091;SDS011;10704;42.678;23.288;2023-02-04T03:35:03;16.10;;;7.95;;
21091;SDS011;10704;42.678;23.288;2023-02-04T03:37:29;15.35;;;7.60;;
21091;SDS011;10704;42.678;23.288;2023-02-04T03:39:55;13.85;;;7.88;;
21091;SDS011;10704;42.678;23.288;2023-02-04T03:42:21;14.20;;;6.90;;
21091;SDS011;10704;42.678;23.288;2023-02-04T03:44:47;17.17;;;7.75;;
21091;SDS011;10704;42.678;23.288;2023-02-04T03:47:13;15.02;;;7.78;;
21091;SDS011;10704;42.678;23.288;2023-02-04T03:49:38;14.50;;;8.13;;
21091;SDS011;10704;42.678;23.288;2023-02-04T03:52:04;18.00;;;8.68;;
21091;SDS011;10704;42.678;23.288;2023-02-04T03:54:30;13.20;;;7.10;;
21091;SDS011;10704;42.678;23.288;2023-02-04T03:56:56;12.63;;;6.85;;
21091;SDS011;10704;42.678;23.288;2023-02-04T03:59:22;17.00;;;7.85;;
21091;SDS011;10704;42.678;23.288;2023-02-04T04:01:49;14.68;;;8.18;;
21091;SDS011;10704;42.678;23.288;2023-02-04T04:04:16;15.45;;;7.63;;
21091;SDS011;10704;42.678;23.288;2023-02-04T04:06:42;14.65;;;7.50;;
21091;SDS011;10704;42.678;23.288;2023-02-04T04:09:08;14.02;;;7.55;;
21091;SDS011;10704;42.678;23.288;2023-02-04T04:11:34;12.40;;;6.95;;
21091;SDS011;10704;42.678;23.288;2023-02-04T04:14:00;11.55;;;5.53;;
21091;SDS011;10704;42.678;23.288;2023-02-04T04:16:26;8.95;;;5.00;;
21091;SDS011;10704;42.678;23.288;2023-02-04T04:18:52;10.18;;;5.40;;
21091;SDS011;10704;42.678;23.288;2023-02-04T04:21:18;12.48;;;5.80;;
21091;SDS011;10704;42.678;23.288;2023-02-04T04:23:44;9.02;;;5.25;;
21091;SDS011;10704;42.678;23.288;2023-02-04T04:26:10;7.28;;;3.15;;
21091;SDS011;10704;42.678;23.288;2023-02-04T04:28:36;6.63;;;3.30;;
21091;SDS011;10704;42.678;23.288;2023-02-04T04:31:02;2.80;;;1.55;;
21091;SDS011;10704;42.678;23.288;2023-02-04T04:33:28;2.17;;;1.15;;
21091;SDS011;10704;42.678;23.288;2023-02-04T04:35:53;3.72;;;0.98;;
21091;SDS011;10704;42.678;23.288;2023-02-04T04:38:19;2.58;;;1.08;;
21091;SDS011;10704;42.678;23.288;2023-02-04T04:40:45;1.67;;;0.82;;
21091;SDS011;10704;42.678;23.288;2023-02-04T04:43:11;2.63;;;1.00;;
21091;SDS011;10704;42.678;23.288;2023-02-04T04:45:37;1.70;;;0.80;;
21091;SDS011;10704;42.678;23.288;2023-02-04T04:48:03;2.75;;;0.70;;
21091;SDS011;10704;42.678;23.288;2023-02-04T04:50:29;3.65;;;0.85;;
21091;SDS011;10704;42.678;23.288;2023-02-04T04:52:55;2.72;;;0.82;;
21091;SDS011;10704;42.678;23.288;2023-02-04T04:55:21;0.95;;;0.80;;
21091;SDS011;10704;42.678;23.288;2023-02-04T04:57:46;2.67;;;1.10;;
21091;SDS011;10704;42.678;23.288;2023-02-04T05:00:16;2.65;;;1.10;;
21091;SDS011;10704;42.678;23.288;2023-02-04T05:02:44;2.15;;;1.05;;
21091;SDS011;10704;42.678;23.288;2023-02-04T05:05:10;3.40;;;1.10;;
21091;SDS011;10704;42.678;23.288;2023-02-04T05:07:37;2.92;;;1.13;;
21091;SDS011;10704;42.678;23.288;2023-02-04T05:10:04;2.15;;;1.00;;
21091;SDS011;10704;42.678;23.288;2023-02-04T05:12:30;3.95;;;1.10;;
21091;SDS011;10704;42.678;23.288;2023-02-04T05:14:56;2.30;;;1.23;;
21091;SDS011;10704;42.678;23.288;2023-02-04T05:17:22;4.85;;;1.15;;
21091;SDS011;10704;42.678;23.288;2023-02-04T05:19:48;2.13;;;1.00;;
21091;SDS011;10704;42.678;23.288;2023-02-04T05:22:14;2.90;;;1.48;;
21091;SDS011;10704;42.678;23.288;2023-02-04T05:24:39;3.00;;;1.40;;
21091;SDS011;10704;42.678;23.288;2023-02-04T05:27:05;3.28;;;1.40;;
21091;SDS011;10704;42.678;23.288;2023-02-04T05:29:31;5.10;;;2.38;;
21091;SDS011;10704;42.678;23.288;2023-02-04T05:31:57;5.50;;;1.73;;
21091;SDS011;10704;42.678;23.288;2023-02-04T05:34:23;5.57;;;1.58;;
21091;SDS011;10704;42.678;23.288;2023-02-04T05:36:49;4.60;;;1.40;;
21091;SDS011;10704;42.678;23.288;2023-02-04T05:39:14;2.85;;;1.50;;
21091;SDS011;10704;42.678;23.288;2023-02-04T05:41:40;7.05;;;1.73;;
21091;SDS011;10704;42.678;23.288;2023-02-04T05:44:06;2.88;;;1.23;;
21091;SDS011;10704;42.678;23.288;2023-02-04T05:46:32;4.72;;;1.10;;
21091;SDS011;10704;42.678;23.288;2023-02-04T05:48:58;4.35;;;1.23;;
21091;SDS011;10704;42.678;23.288;2023-02-04T05:51:24;2.17;;;1.38;;
21091;SDS011;10704;42.678;23.288;2023-02-04T05:53:50;8.00;;;1.85;;
21091;SDS011;10704;42.678;23.288;2023-02-04T05:56:16;3.88;;;1.63;;
21091;SDS011;10704;42.678;23.288;2023-02-04T05:58:41;2.47;;;1.27;;
21091;SDS011;10704;42.678;23.288;2023-02-04T06:01:07;2.53;;;1.20;;
21091;SDS011;10704;42.678;23.288;2023-02-04T06:03:33;4.00;;;1.75;;
21091;SDS011;10704;42.678;23.288;2023-02-04T06:05:59;4.18;;;1.38;;
21091;SDS011;10704;42.678;23.288;2023-02-04T06:08:25;4.30;;;1.75;;
21091;SDS011;10704;42.678;23.288;2023-02-04T06:10:51;4.32;;;2.15;;
21091;SDS011;10704;42.678;23.288;2023-02-04T06:13:17;6.13;;;1.60;;
21091;SDS011;10704;42.678;23.288;2023-02-04T06:15:43;4.57;;;1.80;;
21091;SDS011;10704;42.678;23.288;2023-02-04T06:18:08;3.90;;;1.73;;
21091;SDS011;10704;42.678;23.288;2023-02-04T06:20:35;4.70;;;1.63;;
21091;SDS011;10704;42.678;23.288;2023-02-04T06:23:00;5.07;;;2.28;;
21091;SDS011;10704;42.678;23.288;2023-02-04T06:25:26;2.47;;;1.13;;
21091;SDS011;10704;42.678;23.288;2023-02-04T06:27:52;3.95;;;1.45;;
21091;SDS011;10704;42.678;23.288;2023-02-04T06:30:18;2.75;;;1.63;;
21091;SDS011;10704;42.678;23.288;2023-02-04T06:32:44;4.03;;;1.50;;
21091;SDS011;10704;42.678;23.288;2023-02-04T06:35:10;4.45;;;1.60;;
21091;SDS011;10704;42.678;23.288;2023-02-04T06:37:37;4.78;;;1.88;;
21091;SDS011;10704;42.678;23.288;2023-02-04T06:40:04;4.35;;;1.75;;
21091;SDS011;10704;42.678;23.288;2023-02-04T06:42:30;3.92;;;1.83;;
21091;SDS011;10704;42.678;23.288;2023-02-04T06:44:56;6.47;;;1.90;;
21091;SDS011;10704;42.678;23.288;2023-02-04T06:47:22;5.13;;;1.55;;
21091;SDS011;10704;42.678;23.288;2023-02-04T06:49:48;3.55;;;1.25;;
21091;SDS011;10704;42.678;23.288;2023-02-04T06:52:14;5.22;;;1.73;;
21091;SDS011;10704;42.678;23.288;2023-02-04T06:54:40;4.47;;;1.63;;
21091;SDS011;10704;42.678;23.288;2023-02-04T06:57:05;4.53;;;1.88;;
21091;SDS011;10704;42.678;23.288;2023-02-04T06:59:38;3.38;;;1.52;;
21091;SDS011;10704;42.678;23.288;2023-02-04T07:02:07;5.20;;;1.60;;
21091;SDS011;10704;42.678;23.288;2023-02-04T07:04:35;3.15;;;1.70;;
21091;SDS011;10704;42.678;23.288;2023-02-04T07:07:01;6.50;;;1.80;;
21091;SDS011;10704;42.678;23.288;2023-02-04T07:09:27;5.88;;;1.90;;
21091;SDS011;10704;42.678;23.288;2023-02-04T07:11:53;6.15;;;2.55;;
21091;SDS011;10704;42.678;23.288;2023-02-04T07:14:19;4.80;;;1.80;;
21091;SDS011;10704;42.678;23.288;2023-02-04T07:16:45;5.80;;;2.28;;
21091;SDS011;10704;42.678;23.288;2023-02-04T07:19:11;4.72;;;1.80;;
21091;SDS011;10704;42.678;23.288;2023-02-04T07:21:37;3.88;;;1.88;;
21091;SDS011;10704;42.678;23.288;2023-02-04T07:24:03;5.68;;;2.60;;
21091;SDS011;10704;42.678;23.288;2023-02-04T07:26:29;8.50;;;2.50;;
21091;SDS011;10704;42.678;23.288;2023-02-04T07:28:55;7.45;;;2.75;;
21091;SDS011;10704;42.678;23.288;2023-02-04T07:31:21;7.07;;;2.15;;
21091;SDS011;10704;42.678;23.288;2023-02-04T07:33:46;6.22;;;2.13;;
21091;SDS011;10704;42.678;23.288;2023-02-04T07:36:12;4.22;;;1.92;;
21091;SDS011;10704;42.678;23.288;2023-02-04T07:38:38;4.18;;;1.80;;
21091;SDS011;10704;42.678;23.288;2023-02-04T07:41:04;5.47;;;2.72;;
21091;SDS011;10704;42.678;23.288;2023-02-04T07:43:30;4.35;;;1.85;;
21091;SDS011;10704;42.678;23.288;2023-02-04T07:45:56;6.07;;;2.08;;
21091;SDS011;10704;42.678;23.288;2023-02-04T07:48:22;7.78;;;2.22;;
21091;SDS011;10704;42.678;23.288;2023-02-04T07:50:48;8.18;;;2.30;;
21091;SDS011;10704;42.678;23.288;2023-02-04T07:53:14;8.18;;;2.38;;
21091;SDS011;10704;42.678;23.288;2023-02-04T07:55:40;7.00;;;2.35;;
21091;SDS011;10704;42.678;23.288;2023-02-04T07:58:05;4.70;;;1.85;;
21091;SDS011;10704;42.678;23.288;2023-02-04T08:00:31;6.20;;;2.38;;
21091;SDS011;10704;42.678;23.288;2023-02-04T08:02:57;6.85;;;3.25;;
21091;SDS011;10704;42.678;23.288;2023-02-04T08:05:23;7.22;;;3.30;;
21091;SDS011;10704;42.678;23.288;2023-02-04T08:07:49;3.97;;;1.95;;
21091;SDS011;10704;42.678;23.288;2023-02-04T08:10:15;8.85;;;2.78;;
21091;SDS011;10704;42.678;23.288;2023-02-04T08:12:41;9.90;;;3.08;;
21091;SDS011;10704;42.678;23.288;2023-02-04T08:15:07;6.72;;;2.78;;
21091;SDS011;10704;42.678;23.288;2023-02-04T08:17:33;6.07;;;2.28;;
21091;SDS011;10704;42.678;23.288;2023-02-04T08:19:59;8.13;;;2.97;;
21091;SDS011;10704;42.678;23.288;2023-02-04T08:22:25;6.80;;;2.97;;
21091;SDS011;10704;42.678;23.288;2023-02-04T08:24:51;13.68;;;4.88;;
21091;SDS011;10704;42.678;23.288;2023-02-04T08:27:17;7.00;;;2.90;;
21091;SDS011;10704;42.678;23.288;2023-02-04T08:29:43;15.35;;;7.22;;
21091;SDS011;10704;42.678;23.288;2023-02-04T08:32:09;7.03;;;4.18;;
21091;SDS011;10704;42.678;23.288;2023-02-04T08:34:37;6.57;;;2.58;;
21091;SDS011;10704;42.678;23.288;2023-02-04T08:37:04;21.33;;;8.00;;
21091;SDS011;10704;42.678;23.288;2023-02-04T08:39:30;7.28;;;2.70;;
21091;SDS011;10704;42.678;23.288;2023-02-04T08:41:57;5.88;;;2.17;;
21091;SDS011;10704;42.678;23.288;2023-02-04T08:44:23;14.18;;;4.80;;
21091;SDS011;10704;42.678;23.288;2023-02-04T08:46:49;11.18;;;5.28;;
21091;SDS011;10704;42.678;23.288;2023-02-04T08:49:15;12.93;;;4.32;;
21091;SDS011;10704;42.678;23.288;2023-02-04T08:51:41;12.38;;;4.88;;
21091;SDS011;10704;42.678;23.288;2023-02-04T08:54:06;17.38;;;7.00;;
21091;SDS011;10704;42.678;23.288;2023-02-04T08:56:32;16.65;;;5.93;;
21091;SDS011;10704;42.678;23.288;2023-02-04T08:58:59;16.20;;;6.55;;
21091;SDS011;10704;42.678;23.288;2023-02-04T09:01:25;13.45;;;4.82;;
21091;SDS011;10704;42.678;23.288;2023-02-04T09:03:51;13.00;;;4.60;;
21091;SDS011;10704;42.678;23.288;2023-02-04T09:06:17;13.65;;;4.50;;
21091;SDS011;10704;42.678;23.288;2023-02-04T09:08:43;9.45;;;4.32;;
21091;SDS011;10704;42.678;23.288;2023-02-04T09:11:09;8.02;;;3.72;;
21091;SDS011;10704;42.678;23.288;2023-02-04T09:13:36;10.60;;;3.78;;
21091;SDS011;10704;42.678;23.288;2023-02-04T09:16:03;12.52;;;4.63;;
21091;SDS011;10704;42.678;23.288;2023-02-04T09:18:29;9.95;;;3.72;;
21091;SDS011;10704;42.678;23.288;2023-02-04T09:20:58;6.13;;;2.53;;
21091;SDS011;10704;42.678;23.288;2023-02-04T09:23:24;8.68;;;3.08;;
21091;SDS011;10704;42.678;23.288;2023-02-04T09:25:50;4.28;;;2.30;;
21091;SDS011;10704;42.678;23.288;2023-02-04T09:28:16;6.05;;;2.60;;
21091;SDS011;10704;42.678;23.288;2023-02-04T09:30:43;4.75;;;2.38;;
21091;SDS011;10704;42.678;23.288;2023-02-04T09:33:11;5.38;;;2.95;;
21091;SDS011;10704;42.678;23.288;2023-02-04T09:35:38;6.65;;;3.03;;
21091;SDS011;10704;42.678;23.288;2023-02-04T09:38:04;9.70;;;3.25;;
21091;SDS011;10704;42.678;23.288;2023-02-04T09:40:30;6.03;;;2.40;;
21091;SDS011;10704;42.678;23.288;2023-02-04T09:43:00;6.93;;;2.85;;
21091;SDS011;10704;42.678;23.288;2023-02-04T09:45:28;6.85;;;2.50;;
21091;SDS011;10704;42.678;23.288;2023-02-04T09:47:57;3.75;;;2.05;;
21091;SDS011;10704;42.678;23.288;2023-02-04T09:50:26;5.65;;;2.70;;
21091;SDS011;10704;42.678;23.288;2023-02-04T09:56:40;8.52;;;3.30;;
21091;SDS011;10704;42.678;23.288;2023-02-04T09:59:14;6.78;;;2.95;;
21091;SDS011;10704;42.678;23.288;2023-02-04T10:01:42;11.23;;;4.53;;
21091;SDS011;10704;42.678;23.288;2023-02-04T10:04:09;11.30;;;5.38;;
21091;SDS011;10704;42.678;23.288;2023-02-04T10:06:38;8.82;;;3.97;;
21091;SDS011;10704;42.678;23.288;2023-02-04T10:09:07;8.45;;;3.40;;
21091;SDS011;10704;42.678;23.288;2023-02-04T10:11:35;10.07;;;3.58;;
21091;SDS011;10704;42.678;23.288;2023-02-04T10:14:03;11.25;;;4.18;;
21091;SDS011;10704;42.678;23.288;2023-02-04T10:16:32;5.88;;;2.92;;
21091;SDS011;10704;42.678;23.288;2023-02-04T10:19:04;5.10;;;2.40;;
21091;SDS011;10704;42.678;23.288;2023-02-04T10:21:33;3.45;;;1.73;;
21091;SDS011;10704;42.678;23.288;2023-02-04T10:24:04;6.07;;;1.90;;
21091;SDS011;10704;42.678;23.288;2023-02-04T10:26:41;5.85;;;2.60;;
21091;SDS011;10704;42.678;23.288;2023-02-04T10:29:17;7.72;;;3.13;;
21091;SDS011;10704;42.678;23.288;2023-02-04T10:31:48;4.82;;;2.38;;
21091;SDS011;10704;42.678;23.288;2023-02-04T10:36:44;6.50;;;2.70;;
21091;SDS011;10704;42.678;23.288;2023-02-04T10:39:16;4.05;;;2.40;;
21091;SDS011;10704;42.678;23.288;2023-02-04T10:41:55;6.55;;;1.88;;
21091;SDS011;10704;42.678;23.288;2023-02-04T10:47:00;5.85;;;2.65;;
21091;SDS011;10704;42.678;23.288;2023-02-04T10:49:29;9.32;;;3.25;;
21091;SDS011;10704;42.678;23.288;2023-02-04T10:51:55;7.88;;;2.83;;
21091;SDS011;10704;42.678;23.288;2023-02-04T10:54:23;3.58;;;2.15;;
21091;SDS011;10704;42.678;23.288;2023-02-04T10:57:37;9.68;;;4.00;;
21091;SDS011;10704;42.678;23.288;2023-02-04T10:59:55;10.77;;;4.15;;
21091;SDS011;10704;42.678;23.288;2023-02-04T11:05:20;6.45;;;2.25;;
21091;SDS011;10704;42.678;23.288;2023-02-04T11:07:48;5.18;;;2.17;;
21091;SDS011;10704;42.678;23.288;2023-02-04T11:10:16;6.85;;;2.60;;
21091;SDS011;10704;42.678;23.288;2023-02-04T11:20:57;6.28;;;1.80;;
21091;SDS011;10704;42.678;23.288;2023-02-04T11:27:03;4.28;;;2.33;;
21091;SDS011;10704;42.678;23.288;2023-02-04T11:31:38;4.55;;;1.88;;
21091;SDS011;10704;42.678;23.288;2023-02-04T11:42:01;4.75;;;2.40;;
21091;SDS011;10704;42.678;23.288;2023-02-04T11:44:28;4.15;;;2.28;;
21091;SDS011;10704;42.678;23.288;2023-02-04T11:46:55;3.85;;;2.00;;
21091;SDS011;10704;42.678;23.288;2023-02-04T11:49:21;23.88;;;7.85;;
21091;SDS011;10704;42.678;23.288;2023-02-04T11:51:50;17.33;;;6.05;;
21091;SDS011;10704;42.678;23.288;2023-02-04T11:54:16;5.22;;;2.47;;
21091;SDS011;10704;42.678;23.288;2023-02-04T11:56:46;10.95;;;4.75;;
21091;SDS011;10704;42.678;23.288;2023-02-04T11:59:13;5.53;;;2.67;;
21091;SDS011;10704;42.678;23.288;2023-02-04T12:01:39;8.77;;;2.85;;
21091;SDS011;10704;42.678;23.288;2023-02-04T12:04:06;4.55;;;2.42;;
21091;SDS011;10704;42.678;23.288;2023-02-04T12:06:55;6.65;;;2.45;;
21091;SDS011;10704;42.678;23.288;2023-02-04T12:09:30;7.45;;;2.92;;
21091;SDS011;10704;42.678;23.288;2023-02-04T12:14:36;4.35;;;1.83;;
21091;SDS011;10704;42.678;23.288;2023-02-04T12:17:14;4.22;;;2.25;;
21091;SDS011;10704;42.678;23.288;2023-02-04T12:19:44;5.63;;;2.67;;
21091;SDS011;10704;42.678;23.288;2023-02-04T12:22:10;8.32;;;3.03;;
21091;SDS011;10704;42.678;23.288;2023-02-04T12:24:39;6.53;;;3.42;;
21091;SDS011;10704;42.678;23.288;2023-02-04T12:27:05;6.38;;;3.28;;
21091;SDS011;10704;42.678;23.288;2023-02-04T12:29:31;7.72;;;3.70;;
21091;SDS011;10704;42.678;23.288;2023-02-04T12:31:57;10.27;;;4.25;;
21091;SDS011;10704;42.678;23.288;2023-02-04T12:34:23;8.02;;;2.58;;
21091;SDS011;10704;42.678;23.288;2023-02-04T12:36:49;5.88;;;2.53;;
21091;SDS011;10704;42.678;23.288;2023-02-04T12:39:15;3.72;;;1.55;;
21091;SDS011;10704;42.678;23.288;2023-02-04T12:41:41;2.67;;;1.20;;
21091;SDS011;10704;42.678;23.288;2023-02-04T12:44:06;5.55;;;2.38;;
21091;SDS011;10704;42.678;23.288;2023-02-04T12:46:32;3.40;;;1.60;;
21091;SDS011;10704;42.678;23.288;2023-02-04T12:48:59;5.35;;;2.63;;
21091;SDS011;10704;42.678;23.288;2023-02-04T12:51:25;4.05;;;1.70;;
21091;SDS011;10704;42.678;23.288;2023-02-04T12:57:38;3.78;;;1.52;;
21091;SDS011;10704;42.678;23.288;2023-02-04T13:00:05;5.13;;;1.50;;
21091;SDS011;10704;42.678;23.288;2023-02-04T13:02:31;2.78;;;1.50;;
21091;SDS011;10704;42.678;23.288;2023-02-04T13:04:57;10.23;;;4.05;;
21091;SDS011;10704;42.678;23.288;2023-02-04T13:07:23;13.82;;;5.18;;
21091;SDS011;10704;42.678;23.288;2023-02-04T13:09:49;4.68;;;1.83;;
21091;SDS011;10704;42.678;23.288;2023-02-04T13:12:15;7.40;;;3.33;;
21091;SDS011;10704;42.678;23.288;2023-02-04T13:14:41;5.45;;;2.45;;
21091;SDS011;10704;42.678;23.288;2023-02-04T13:17:07;6.90;;;2.92;;
21091;SDS011;10704;42.678;23.288;2023-02-04T13:19:33;3.85;;;1.67;;
21091;SDS011;10704;42.678;23.288;2023-02-04T13:21:59;4.35;;;1.42;;
21091;SDS011;10704;42.678;23.288;2023-02-04T13:24:26;3.67;;;1.75;;
21091;SDS011;10704;42.678;23.288;2023-02-04T13:26:54;5.18;;;1.83;;
21091;SDS011;10704;42.678;23.288;2023-02-04T13:29:20;15.30;;;4.75;;
21091;SDS011;10704;42.678;23.288;2023-02-04T13:31:46;10.20;;;4.10;;
21091;SDS011;10704;42.678;23.288;2023-02-04T13:34:12;11.10;;;4.68;;
21091;SDS011;10704;42.678;23.288;2023-02-04T13:36:38;6.10;;;2.53;;
21091;SDS011;10704;42.678;23.288;2023-02-04T13:39:04;3.90;;;1.67;;
21091;SDS011;10704;42.678;23.288;2023-02-04T13:41:30;4.45;;;1.92;;
21091;SDS011;10704;42.678;23.288;2023-02-04T13:43:56;4.95;;;1.92;;
21091;SDS011;10704;42.678;23.288;2023-02-04T13:46:22;4.80;;;1.92;;
21091;SDS011;10704;42.678;23.288;2023-02-04T13:48:49;4.93;;;2.10;;
21091;SDS011;10704;42.678;23.288;2023-02-04T13:51:15;11.82;;;4.70;;
21091;SDS011;10704;42.678;23.288;2023-02-04T13:53:41;5.72;;;2.75;;
21091;SDS011;10704;42.678;23.288;2023-02-04T13:56:07;5.28;;;2.15;;
21091;SDS011;10704;42.678;23.288;2023-02-04T13:58:33;3.40;;;1.70;;
21091;SDS011;10704;42.678;23.288;2023-02-04T14:00:59;4.93;;;2.22;;
21091;SDS011;10704;42.678;23.288;2023-02-04T14:03:26;4.90;;;2.20;;
21091;SDS011;10704;42.678;23.288;2023-02-04T14:05:53;3.13;;;1.60;;
21091;SDS011;10704;42.678;23.288;2023-02-04T14:08:20;6.05;;;2.30;;
21091;SDS011;10704;42.678;23.288;2023-02-04T14:10:46;5.53;;;2.63;;
21091;SDS011;10704;42.678;23.288;2023-02-04T14:13:12;4.80;;;2.25;;
21091;SDS011;10704;42.678;23.288;2023-02-04T14:15:39;4.45;;;2.63;;
21091;SDS011;10704;42.678;23.288;2023-02-04T14:18:06;5.20;;;2.67;;
21091;SDS011;10704;42.678;23.288;2023-02-04T14:20:33;6.95;;;2.85;;
21091;SDS011;10704;42.678;23.288;2023-02-04T14:23:00;6.97;;;3.25;;
21091;SDS011;10704;42.678;23.288;2023-02-04T14:25:26;30.60;;;10.13;;
21091;SDS011;10704;42.678;23.288;2023-02-04T14:27:53;8.05;;;3.78;;
21091;SDS011;10704;42.678;23.288;2023-02-04T14:30:24;5.75;;;2.72;;
21091;SDS011;10704;42.678;23.288;2023-02-04T14:32:51;5.97;;;2.72;;
21091;SDS011;10704;42.678;23.288;2023-02-04T14:35:18;6.68;;;2.78;;
21091;SDS011;10704;42.678;23.288;2023-02-04T14:37:44;4.88;;;2.60;;
21091;SDS011;10704;42.678;23.288;2023-02-04T14:40:11;2.47;;;1.48;;
21091;SDS011;10704;42.678;23.288;2023-02-04T14:42:37;4.20;;;1.90;;
21091;SDS011;10704;42.678;23.288;2023-02-04T14:45:04;2.75;;;1.48;;
21091;SDS011;10704;42.678;23.288;2023-02-04T14:47:35;3.25;;;1.58;;
21091;SDS011;10704;42.678;23.288;2023-02-04T14:50:02;4.18;;;2.00;;
21091;SDS011;10704;42.678;23.288;2023-02-04T14:52:28;3.70;;;1.90;;
21091;SDS011;10704;42.678;23.288;2023-02-04T14:54:54;2.63;;;1.52;;
21091;SDS011;10704;42.678;23.288;2023-02-04T14:57:20;3.25;;;1.40;;
21091;SDS011;10704;42.678;23.288;2023-02-04T14:59:47;5.63;;;2.35;;
21091;SDS011;10704;42.678;23.288;2023-02-04T15:02:13;4.20;;;1.60;;
21091;SDS011;10704;42.678;23.288;2023-02-04T15:04:40;4.90;;;2.30;;
21091;SDS011;10704;42.678;23.288;2023-02-04T15:07:07;2.58;;;1.65;;
21091;SDS011;10704;42.678;23.288;2023-02-04T15:09:33;4.50;;;1.92;;
21091;SDS011;10704;42.678;23.288;2023-02-04T15:11:59;4.45;;;2.13;;
21091;SDS011;10704;42.678;23.288;2023-02-04T15:14:25;3.30;;;1.95;;
21091;SDS011;10704;42.678;23.288;2023-02-04T15:16:51;3.65;;;1.80;;